createdAt,value
2022-12-14T00:01:34.358Z,19.93
2022-12-14T00:04:00.945Z,21.03
2022-12-14T00:06:29.905Z,21.43
2022-12-14T00:08:59.063Z,24.27
2022-12-14T00:11:26.050Z,22.17
2022-12-14T00:13:58.224Z,22.63
2022-12-14T00:16:27.817Z,23.67
2022-12-14T00:18:57.760Z,20.20
2022-12-14T00:21:24.428Z,14.83
2022-12-14T00:23:52.130Z,23.73
2022-12-14T00:26:24.312Z,22.40
2022-12-14T00:28:52.462Z,21.93
2022-12-14T00:31:19.610Z,14.73
2022-12-14T00:33:46.754Z,18.07
2022-12-14T00:36:13.718Z,16.90
2022-12-14T00:38:40.909Z,17.70
2022-12-14T00:41:08.065Z,17.00
2022-12-14T00:43:34.798Z,15.57
2022-12-14T00:46:01.490Z,18.80
2022-12-14T00:48:28.653Z,17.27
2022-12-14T00:50:56.082Z,17.50
2022-12-14T00:53:23.766Z,19.03
2022-12-14T00:55:50.712Z,18.90
2022-12-14T00:58:20.194Z,16.10
2022-12-14T01:00:48.382Z,15.60
2022-12-14T01:03:15.303Z,14.20
2022-12-14T01:05:42.074Z,15.40
2022-12-14T01:08:15.889Z,14.57
2022-12-14T01:10:42.577Z,11.60
2022-12-14T01:13:11.138Z,12.97
2022-12-14T01:15:37.879Z,15.57
2022-12-14T01:18:04.839Z,13.43
2022-12-14T01:20:31.435Z,10.70
2022-12-14T01:22:58.085Z,12.63
2022-12-14T01:25:24.914Z,10.87
2022-12-14T01:27:51.694Z,13.57
2022-12-14T01:30:19.280Z,12.00
2022-12-14T01:32:46.789Z,12.13
2022-12-14T01:35:13.604Z,15.23
2022-12-14T01:37:40.272Z,14.30
2022-12-14T01:40:07.851Z,14.90
2022-12-14T01:42:37.955Z,14.90
2022-12-14T01:45:06.114Z,14.10
2022-12-14T01:47:42.403Z,11.03
2022-12-14T01:50:27.247Z,10.37
2022-12-14T01:52:56.961Z,15.13
2022-12-14T01:55:34.311Z,12.27
2022-12-14T01:58:20.448Z,12.20
2022-12-14T02:00:47.649Z,13.60
2022-12-14T02:03:38.353Z,14.70
2022-12-14T02:06:06.148Z,11.10
2022-12-14T02:08:33.103Z,15.43
2022-12-14T02:11:00.031Z,12.90
2022-12-14T02:13:29.686Z,9.93
2022-12-14T02:15:56.646Z,14.10
2022-12-14T02:18:27.693Z,14.90
2022-12-14T02:21:12.278Z,12.60
2022-12-14T02:23:45.106Z,12.93
2022-12-14T02:26:44.216Z,11.97
2022-12-14T02:29:19.758Z,14.93
2022-12-14T02:31:46.259Z,10.97
2022-12-14T02:34:35.156Z,10.73
2022-12-14T02:37:17.512Z,9.70
2022-12-14T02:40:01.367Z,12.23
2022-12-14T02:42:36.993Z,11.80
2022-12-14T02:45:16.977Z,13.20
2022-12-14T02:47:54.384Z,15.53
2022-12-14T02:50:29.978Z,10.67
2022-12-14T02:53:08.898Z,11.37
2022-12-14T02:55:37.708Z,9.50
2022-12-14T02:58:13.650Z,10.97
2022-12-14T03:00:40.816Z,10.27
2022-12-14T03:03:07.508Z,10.37
2022-12-14T03:05:35.009Z,8.87
2022-12-14T03:08:08.776Z,15.33
2022-12-14T03:10:41.539Z,12.60
2022-12-14T03:13:49.190Z,15.07
2022-12-14T03:16:16.001Z,10.90
2022-12-14T03:18:50.221Z,11.90
2022-12-14T03:21:21.021Z,12.13
2022-12-14T03:23:49.107Z,12.17
2022-12-14T03:26:38.386Z,11.63
2022-12-14T03:29:11.453Z,10.83
2022-12-14T03:31:42.147Z,8.90
2022-12-14T03:34:13.024Z,14.50
2022-12-14T03:36:59.216Z,8.73
2022-12-14T03:39:29.743Z,8.53
2022-12-14T03:42:05.323Z,10.13
2022-12-14T03:44:33.919Z,8.73
2022-12-14T03:47:19.388Z,10.17
2022-12-14T03:50:30.823Z,12.50
2022-12-14T03:53:00.140Z,13.10
2022-12-14T03:55:44.760Z,13.63
2022-12-14T03:58:57.003Z,13.40
2022-12-14T04:01:44.569Z,12.50
2022-12-14T04:04:35.752Z,11.17
2022-12-14T04:07:23.379Z,12.10
2022-12-14T04:09:59.410Z,11.90
2022-12-14T04:12:54.381Z,13.80
2022-12-14T04:15:43.884Z,12.43
2022-12-14T04:18:34.891Z,10.30
2022-12-14T04:21:07.741Z,10.23
2022-12-14T04:23:57.053Z,8.77
2022-12-14T04:26:29.313Z,13.90
2022-12-14T04:29:18.100Z,11.83
2022-12-14T04:31:49.267Z,9.30
2022-12-14T04:34:17.296Z,10.10
2022-12-14T04:36:50.181Z,10.07
2022-12-14T04:39:22.474Z,11.70
2022-12-14T04:41:52.402Z,12.90
2022-12-14T04:44:26.367Z,9.03
2022-12-14T04:46:53.710Z,9.40
2022-12-14T04:49:24.333Z,8.43
2022-12-14T04:52:14.600Z,12.23
2022-12-14T04:54:55.193Z,11.43
2022-12-14T04:57:36.846Z,11.17
2022-12-14T05:00:05.601Z,12.70
2022-12-14T05:03:00.281Z,11.37
2022-12-14T05:05:36.951Z,13.47
2022-12-14T05:08:12.443Z,9.10
2022-12-14T05:10:46.051Z,8.03
2022-12-14T05:13:30.941Z,9.50
2022-12-14T05:15:58.519Z,10.67
2022-12-14T05:18:25.629Z,11.60
2022-12-14T05:20:52.205Z,12.60
2022-12-14T05:23:18.892Z,9.47
2022-12-14T05:25:45.455Z,8.00
2022-12-14T05:28:15.979Z,8.90
2022-12-14T05:30:42.706Z,8.80
2022-12-14T05:33:19.601Z,7.63
2022-12-14T05:35:46.625Z,8.90
2022-12-14T05:38:13.243Z,9.03
2022-12-14T05:40:42.481Z,10.97
2022-12-14T05:43:12.179Z,9.90
2022-12-14T05:45:38.862Z,9.83
2022-12-14T05:48:05.749Z,10.30
2022-12-14T05:50:32.432Z,10.70
2022-12-14T05:52:59.091Z,8.30
2022-12-14T05:55:25.763Z,7.87
2022-12-14T05:57:52.436Z,10.67
2022-12-14T06:00:19.135Z,13.00
2022-12-14T06:02:45.893Z,11.20
2022-12-14T06:05:12.545Z,18.13
2022-12-14T06:07:39.661Z,18.60
2022-12-14T06:10:06.702Z,11.20
2022-12-14T06:12:33.284Z,13.60
2022-12-14T06:14:59.914Z,12.30
2022-12-14T06:17:26.491Z,11.60
2022-12-14T06:19:53.119Z,9.70
2022-12-14T06:22:20.794Z,11.73
2022-12-14T06:24:47.376Z,15.50
2022-12-14T06:27:13.969Z,9.60
2022-12-14T06:29:40.639Z,9.40
2022-12-14T06:32:07.239Z,8.00
2022-12-14T06:34:38.460Z,7.47
2022-12-14T06:37:06.252Z,7.70
2022-12-14T06:39:32.862Z,10.47
2022-12-14T06:41:59.473Z,10.03
2022-12-14T06:44:26.070Z,10.23
2022-12-14T06:46:52.745Z,9.13
2022-12-14T06:49:19.465Z,9.20
2022-12-14T06:51:46.020Z,9.07
2022-12-14T06:54:13.717Z,7.13
2022-12-14T06:56:41.409Z,8.23
2022-12-14T06:59:08.812Z,8.67
2022-12-14T07:01:36.924Z,9.17
2022-12-14T07:04:04.328Z,10.10
2022-12-14T07:06:39.436Z,9.03
2022-12-14T07:09:07.549Z,8.67
2022-12-14T07:11:34.219Z,15.37
2022-12-14T07:14:03.144Z,9.00
2022-12-14T07:16:29.684Z,9.07
2022-12-14T07:18:56.606Z,11.20
2022-12-14T07:21:23.939Z,11.43
2022-12-14T07:23:52.462Z,10.03
2022-12-14T07:26:27.482Z,9.90
2022-12-14T07:28:54.753Z,7.83
2022-12-14T07:31:23.911Z,10.73
2022-12-14T07:33:55.137Z,8.17
2022-12-14T07:36:22.911Z,10.77
2022-12-14T07:38:50.761Z,9.80
2022-12-14T07:41:23.515Z,8.43
2022-12-14T07:43:52.135Z,11.17
2022-12-14T07:46:24.259Z,8.73
2022-12-14T07:48:53.347Z,7.80
2022-12-14T07:51:22.847Z,7.50
2022-12-14T07:53:50.696Z,9.23
2022-12-14T07:56:23.104Z,9.40
2022-12-14T07:58:49.840Z,5.93
2022-12-14T08:01:25.314Z,8.57
2022-12-14T08:03:54.363Z,8.00
2022-12-14T08:06:23.389Z,7.30
2022-12-14T08:08:50.228Z,6.40
2022-12-14T08:11:17.042Z,11.43
2022-12-14T08:13:43.878Z,15.87
2022-12-14T08:16:15.845Z,15.30
2022-12-14T08:18:43.468Z,14.33
2022-12-14T08:21:12.440Z,11.17
2022-12-14T08:23:39.147Z,14.23
2022-12-14T08:26:07.386Z,15.40
2022-12-14T08:28:35.220Z,13.20
2022-12-14T08:31:10.911Z,16.13
2022-12-14T08:33:38.627Z,18.40
2022-12-14T08:36:08.048Z,14.13
2022-12-14T08:38:34.814Z,15.47
2022-12-14T08:41:05.694Z,13.80
2022-12-14T08:43:32.975Z,14.73
2022-12-14T08:45:59.938Z,16.50
2022-12-14T08:48:26.627Z,16.20
2022-12-14T08:50:53.573Z,13.57
2022-12-14T08:53:20.419Z,14.20
2022-12-14T08:55:47.041Z,12.77
2022-12-14T08:58:13.997Z,13.90
2022-12-14T09:00:40.609Z,13.73
2022-12-14T09:03:07.621Z,11.07
2022-12-14T09:05:35.062Z,12.33
2022-12-14T09:08:01.805Z,12.80
2022-12-14T09:10:28.433Z,12.47
2022-12-14T09:12:55.071Z,12.43
2022-12-14T09:15:21.947Z,11.37
2022-12-14T09:17:49.857Z,11.30
2022-12-14T09:20:16.708Z,11.63
2022-12-14T09:22:43.473Z,15.10
2022-12-14T09:25:10.125Z,18.03
2022-12-14T09:27:36.800Z,17.07
2022-12-14T09:30:04.232Z,16.30
2022-12-14T09:32:31.068Z,16.30
2022-12-14T09:34:59.811Z,17.87
2022-12-14T09:37:26.453Z,20.37
2022-12-14T09:39:53.181Z,20.10
2022-12-14T09:42:38.562Z,28.43
2022-12-14T09:45:17.327Z,23.53
2022-12-14T09:47:49.740Z,21.40
2022-12-14T09:50:19.337Z,18.37
2022-12-14T09:52:53.321Z,17.60
2022-12-14T09:55:24.427Z,15.13
2022-12-14T09:57:55.723Z,13.17
2022-12-14T10:00:22.740Z,15.83
2022-12-14T10:03:08.810Z,16.83
2022-12-14T10:06:00.088Z,17.30
2022-12-14T10:08:58.976Z,16.97
2022-12-14T10:11:40.759Z,13.77
2022-12-14T10:14:52.282Z,16.93
2022-12-14T10:18:05.657Z,16.60
2022-12-14T10:20:34.960Z,14.60
2022-12-14T10:23:02.373Z,9.93
2022-12-14T10:25:31.667Z,13.00
2022-12-14T10:28:12.786Z,14.80
2022-12-14T10:30:41.960Z,19.03
2022-12-14T10:33:14.806Z,11.17
2022-12-14T10:35:51.152Z,12.10
2022-12-14T10:38:23.715Z,12.80
2022-12-14T10:40:52.100Z,10.33
2022-12-14T10:43:44.146Z,10.20
2022-12-14T10:46:28.987Z,10.80
2022-12-14T10:49:09.022Z,13.47
2022-12-14T10:51:38.756Z,11.77
2022-12-14T10:54:17.491Z,12.13
2022-12-14T10:56:49.853Z,8.37
2022-12-14T10:59:25.823Z,9.43
2022-12-14T11:02:18.632Z,8.63
2022-12-14T11:04:51.495Z,11.83
2022-12-14T11:07:21.841Z,10.00
2022-12-14T11:09:48.982Z,9.87
2022-12-14T11:12:24.830Z,12.47
2022-12-14T11:15:01.471Z,9.63
2022-12-14T11:17:36.563Z,11.60
2022-12-14T11:20:09.523Z,12.27
2022-12-14T11:22:50.840Z,13.20
2022-12-14T11:25:37.705Z,10.90
2022-12-14T11:28:16.772Z,11.97
2022-12-14T11:30:55.772Z,9.57
2022-12-14T11:33:22.846Z,12.50
2022-12-14T11:35:52.690Z,10.97
2022-12-14T11:38:19.938Z,10.30
2022-12-14T11:40:47.108Z,10.10
2022-12-14T11:43:24.431Z,11.40
2022-12-14T11:45:51.646Z,10.17
2022-12-14T11:48:24.239Z,15.40
2022-12-14T11:50:53.111Z,14.63
2022-12-14T11:53:20.948Z,8.70
2022-12-14T11:55:52.576Z,9.40
2022-12-14T11:58:22.579Z,10.50
2022-12-14T12:00:59.572Z,7.60
2022-12-14T12:03:32.604Z,10.50
2022-12-14T12:06:06.232Z,11.60
2022-12-14T12:08:35.683Z,9.87
2022-12-14T12:11:15.400Z,8.43
2022-12-14T12:13:45.034Z,11.73
2022-12-14T12:16:20.301Z,11.83
2022-12-14T12:18:54.937Z,10.83
2022-12-14T12:21:25.434Z,9.80
2022-12-14T12:24:17.507Z,9.57
2022-12-14T12:26:55.911Z,10.70
2022-12-14T12:29:32.156Z,9.20
2022-12-14T12:32:17.258Z,11.57
2022-12-14T12:34:57.086Z,11.00
2022-12-14T12:37:36.831Z,7.93
2022-12-14T12:40:24.535Z,12.37
2022-12-14T12:43:01.948Z,12.67
2022-12-14T12:45:34.991Z,10.83
2022-12-14T12:48:25.520Z,9.37
2022-12-14T12:50:55.901Z,12.50
2022-12-14T12:53:30.216Z,11.07
2022-12-14T12:56:16.979Z,13.20
2022-12-14T12:58:50.663Z,12.63
2022-12-14T13:01:36.109Z,11.07
2022-12-14T13:04:10.243Z,8.53
2022-12-14T13:06:50.583Z,9.30
2022-12-14T13:09:35.298Z,11.40
2022-12-14T13:12:02.980Z,10.30
2022-12-14T13:14:35.126Z,12.87
2022-12-14T13:17:04.547Z,9.60
2022-12-14T13:19:54.661Z,8.30
2022-12-14T13:22:30.180Z,11.87
2022-12-14T13:25:00.229Z,10.43
2022-12-14T13:27:42.436Z,8.10
2022-12-14T13:30:27.172Z,9.83
2022-12-14T13:33:31.336Z,12.40
2022-12-14T13:36:26.137Z,12.47
2022-12-14T13:39:18.142Z,13.43
2022-12-14T13:42:09.339Z,10.97
2022-12-14T13:45:01.374Z,12.93
2022-12-14T13:47:53.965Z,11.73
2022-12-14T13:50:54.217Z,11.63
2022-12-14T13:53:34.696Z,12.70
2022-12-14T13:56:02.277Z,13.33
2022-12-14T13:58:49.393Z,11.03
2022-12-14T14:01:48.209Z,12.30
2022-12-14T14:04:32.365Z,13.13
2022-12-14T14:07:25.243Z,8.87
2022-12-14T14:09:54.954Z,12.30
2022-12-14T14:12:24.207Z,12.60
2022-12-14T14:14:52.623Z,10.90
2022-12-14T14:17:30.012Z,13.83
2022-12-14T14:19:57.823Z,10.50
2022-12-14T14:22:27.463Z,12.27
2022-12-14T14:24:58.778Z,10.10
2022-12-14T14:27:44.974Z,12.60
2022-12-14T14:30:29.994Z,9.33
2022-12-14T14:33:20.047Z,9.93
2022-12-14T14:35:44.609Z,12.20
2022-12-14T14:38:25.474Z,13.60
2022-12-14T14:41:15.991Z,12.07
2022-12-14T14:43:49.878Z,11.93
2022-12-14T14:46:22.171Z,13.17
2022-12-14T14:48:50.589Z,13.13
2022-12-14T14:51:20.602Z,12.47
2022-12-14T14:53:50.254Z,11.37
2022-12-14T14:56:29.355Z,11.67
2022-12-14T14:59:14.771Z,12.80
2022-12-14T15:01:48.399Z,16.50
2022-12-14T15:04:23.489Z,12.57
2022-12-14T15:06:57.409Z,12.57
2022-12-14T15:09:33.992Z,11.60
2022-12-14T15:12:06.905Z,10.23
2022-12-14T15:14:46.618Z,14.80
2022-12-14T15:17:18.197Z,13.33
2022-12-14T15:19:49.546Z,16.33
2022-12-14T15:22:19.547Z,17.40
2022-12-14T15:24:48.862Z,14.67
2022-12-14T15:27:28.754Z,13.40
2022-12-14T15:30:05.817Z,16.83
2022-12-14T15:32:32.883Z,14.07
2022-12-14T15:35:06.490Z,12.87
2022-12-14T15:37:56.453Z,15.00
2022-12-14T15:40:28.051Z,16.33
2022-12-14T15:43:01.970Z,10.83
2022-12-14T15:45:34.697Z,10.67
2022-12-14T15:48:31.064Z,13.43
2022-12-14T15:51:00.351Z,11.20
2022-12-14T15:53:31.883Z,12.47
2022-12-14T15:56:11.786Z,15.43
2022-12-14T15:58:40.831Z,11.43
2022-12-14T16:01:14.115Z,12.40
2022-12-14T16:03:43.799Z,15.07
2022-12-14T16:06:11.360Z,16.37
2022-12-14T16:08:44.652Z,13.67
2022-12-14T16:11:19.385Z,16.00
2022-12-14T16:13:46.345Z,12.80
2022-12-14T16:16:13.690Z,14.83
2022-12-14T16:18:50.619Z,13.70
2022-12-14T16:21:30.289Z,16.03
2022-12-14T16:23:58.030Z,16.10
2022-12-14T16:26:37.632Z,14.70
2022-12-14T16:29:23.089Z,13.67
2022-12-14T16:31:49.990Z,17.53
2022-12-14T16:34:20.604Z,13.67
2022-12-14T16:37:14.554Z,14.30
2022-12-14T16:39:44.793Z,12.07
2022-12-14T16:42:25.557Z,17.23
2022-12-14T16:44:54.079Z,16.50
2022-12-14T16:47:20.634Z,17.17
2022-12-14T16:49:51.694Z,15.93
2022-12-14T16:52:23.873Z,15.07
2022-12-14T16:55:09.348Z,14.33
2022-12-14T16:57:39.615Z,17.10
2022-12-14T17:00:07.451Z,17.70
2022-12-14T17:02:34.600Z,16.53
2022-12-14T17:05:05.662Z,20.43
2022-12-14T17:07:33.520Z,18.90
2022-12-14T17:10:00.321Z,13.97
2022-12-14T17:12:27.214Z,20.73
2022-12-14T17:14:54.076Z,16.73
2022-12-14T17:17:34.182Z,15.90
2022-12-14T17:20:02.165Z,17.13
2022-12-14T17:22:30.698Z,18.87
2022-12-14T17:24:59.236Z,15.87
2022-12-14T17:27:26.810Z,18.63
2022-12-14T17:29:54.683Z,19.33
2022-12-14T17:32:22.465Z,22.23
2022-12-14T17:34:49.212Z,20.43
2022-12-14T17:37:20.666Z,17.30
2022-12-14T17:39:47.483Z,18.20
2022-12-14T17:42:17.195Z,20.47
2022-12-14T17:44:54.362Z,20.60
2022-12-14T17:47:22.596Z,19.67
2022-12-14T17:49:49.377Z,19.60
2022-12-14T17:52:24.165Z,19.33
2022-12-14T17:54:50.785Z,16.80
2022-12-14T17:57:22.622Z,17.90
2022-12-14T17:59:49.857Z,17.17
2022-12-14T18:02:28.855Z,19.30
2022-12-14T18:04:55.890Z,17.20
2022-12-14T18:07:22.578Z,14.50
2022-12-14T18:09:50.591Z,19.87
2022-12-14T18:12:25.118Z,18.30
2022-12-14T18:14:52.322Z,19.10
2022-12-14T18:17:19.159Z,19.73
2022-12-14T18:19:47.896Z,21.67
2022-12-14T18:22:16.722Z,16.07
2022-12-14T18:24:43.358Z,19.73
2022-12-14T18:27:13.725Z,19.70
2022-12-14T18:29:40.622Z,17.53
2022-12-14T18:32:11.259Z,20.13
2022-12-14T18:34:37.955Z,30.87
2022-12-14T18:37:04.640Z,30.77
2022-12-14T18:39:31.265Z,27.30
2022-12-14T18:41:57.847Z,25.00
2022-12-14T18:44:24.739Z,29.93
2022-12-14T18:46:51.383Z,34.80
2022-12-14T18:49:17.951Z,29.30
2022-12-14T18:51:44.611Z,41.00
2022-12-14T18:54:11.550Z,42.90
2022-12-14T18:56:40.974Z,43.23
2022-12-14T18:59:07.695Z,37.33
2022-12-14T19:01:34.482Z,37.20
2022-12-14T19:04:01.369Z,26.00
2022-12-14T19:06:44.027Z,32.13
2022-12-14T19:09:12.732Z,29.23
2022-12-14T19:11:41.716Z,29.63
2022-12-14T19:14:08.519Z,26.43
2022-12-14T19:16:35.272Z,22.53
2022-12-14T19:19:01.941Z,24.70
2022-12-14T19:21:29.659Z,28.27
2022-12-14T19:23:56.699Z,27.13
2022-12-14T19:26:23.347Z,27.63
2022-12-14T19:28:50.067Z,29.00
2022-12-14T19:31:16.955Z,28.27
2022-12-14T19:33:43.654Z,28.30
2022-12-14T19:36:10.846Z,29.27
2022-12-14T19:38:37.910Z,34.57
2022-12-14T19:41:07.625Z,30.50
2022-12-14T19:43:35.243Z,38.67
2022-12-14T19:46:10.106Z,33.50
2022-12-14T19:48:38.074Z,32.80
2022-12-14T19:51:06.713Z,30.17
2022-12-14T19:53:34.876Z,32.47
2022-12-14T19:56:01.721Z,32.53
2022-12-14T19:58:29.121Z,30.33
2022-12-14T20:00:56.067Z,31.83
2022-12-14T20:03:22.832Z,28.97
2022-12-14T20:05:55.228Z,34.40
2022-12-14T20:08:22.535Z,26.87
2022-12-14T20:10:49.309Z,28.87
2022-12-14T20:13:16.172Z,31.63
2022-12-14T20:15:53.704Z,30.80
2022-12-14T20:18:21.797Z,28.50
2022-12-14T20:20:49.427Z,34.17
2022-12-14T20:23:17.634Z,27.73
2022-12-14T20:25:44.782Z,25.93
2022-12-14T20:28:11.399Z,29.80
2022-12-14T20:30:45.742Z,27.13
2022-12-14T20:33:12.761Z,28.33
2022-12-14T20:35:39.471Z,27.23
2022-12-14T20:38:06.137Z,29.80
2022-12-14T20:40:37.999Z,30.97
2022-12-14T20:43:06.507Z,27.47
2022-12-14T20:45:40.531Z,27.37
2022-12-14T20:48:07.960Z,27.80
2022-12-14T20:50:38.614Z,29.23
2022-12-14T20:53:05.841Z,40.93
2022-12-14T20:55:34.049Z,29.60
2022-12-14T20:58:01.420Z,44.63
2022-12-14T21:00:28.458Z,105.57
2022-12-14T21:02:55.233Z,45.63
2022-12-14T21:05:21.997Z,31.27
2022-12-14T21:07:48.803Z,28.20
2022-12-14T21:10:15.456Z,30.30
2022-12-14T21:12:42.041Z,25.73
2022-12-14T21:15:09.022Z,26.90
2022-12-14T21:17:35.629Z,26.47
2022-12-14T21:20:02.309Z,29.13
2022-12-14T21:22:30.455Z,31.20
2022-12-14T21:25:06.031Z,28.60
2022-12-14T21:27:34.844Z,29.77
2022-12-14T21:30:01.756Z,25.30
2022-12-14T21:32:28.454Z,25.97
2022-12-14T21:34:55.052Z,22.30
2022-12-14T21:37:22.623Z,25.80
2022-12-14T21:39:54.995Z,24.53
2022-12-14T21:42:23.845Z,30.93
2022-12-14T21:44:51.893Z,25.77
2022-12-14T21:47:20.089Z,31.77
2022-12-14T21:49:47.499Z,31.80
2022-12-14T21:52:18.157Z,23.83
2022-12-14T21:54:44.997Z,28.47
2022-12-14T21:57:35.551Z,25.43
2022-12-14T22:00:02.693Z,26.80
2022-12-14T22:02:39.182Z,24.60
2022-12-14T22:05:06.527Z,26.97
2022-12-14T22:07:34.021Z,27.97
2022-12-14T22:10:00.758Z,29.57
2022-12-14T22:12:27.615Z,24.67
2022-12-14T22:14:54.248Z,29.77
2022-12-14T22:17:20.881Z,28.53
2022-12-14T22:19:48.990Z,29.80
2022-12-14T22:22:16.320Z,28.20
2022-12-14T22:24:43.481Z,28.90
2022-12-14T22:27:11.837Z,28.47
2022-12-14T22:29:38.460Z,27.53
2022-12-14T22:32:06.061Z,26.43
2022-12-14T22:34:32.710Z,27.80
2022-12-14T22:36:59.426Z,32.40
2022-12-14T22:39:25.996Z,35.17
2022-12-14T22:41:52.601Z,28.03
2022-12-14T22:44:19.190Z,27.17
2022-12-14T22:46:46.897Z,26.03
2022-12-14T22:49:16.805Z,25.00
2022-12-14T22:51:43.431Z,23.37
2022-12-14T22:54:21.409Z,27.83
2022-12-14T22:57:01.167Z,30.17
2022-12-14T22:59:37.559Z,26.37
2022-12-14T23:02:05.071Z,27.97
2022-12-14T23:04:31.892Z,23.67
2022-12-14T23:06:58.499Z,26.60
2022-12-14T23:09:43.370Z,24.93
2022-12-14T23:12:28.507Z,26.07
2022-12-14T23:15:13.761Z,25.00
2022-12-14T23:17:58.943Z,29.53
2022-12-14T23:20:44.221Z,29.33
2022-12-14T23:23:29.768Z,27.57
2022-12-14T23:26:20.149Z,26.30
2022-12-14T23:29:05.495Z,26.87
2022-12-14T23:31:50.771Z,27.70
2022-12-14T23:34:35.732Z,24.00
2022-12-14T23:37:20.979Z,24.90
2022-12-14T23:40:06.723Z,23.10
2022-12-14T23:42:52.058Z,28.90
2022-12-14T23:45:37.417Z,27.43
2022-12-14T23:48:22.615Z,24.90
2022-12-14T23:51:07.922Z,25.37
2022-12-14T23:53:53.226Z,26.90
2022-12-14T23:56:38.495Z,24.00
2022-12-14T23:59:27.972Z,26.53
